Time;durP1;ratioP1;P1;durP2;ratioP2;P2;SDS_P1;SDS_P2;PMS_P1;PMS_P2;Temp;Humidity;BMP_temperature;BMP_pressure;BME280_temperature;BME280_humidity;BME280_pressure;Samples;Min_cycle;Max_cycle;Signal;HPM_P1;HPM_P2
2022/12/18 00:00:46;;;;;;;49.22;26.38;;;-1.70;84.10;;;;;;5033573;28;20017;-87
2022/12/18 00:03:15;;;;;;;52.28;27.25;;;-1.70;83.90;;;;;;5036830;28;20036;-86
2022/12/18 00:05:48;;;;;;;43.45;23.20;;;-1.80;83.80;;;;;;5032063;28;20044;-86
2022/12/18 00:08:14;;;;;;;48.45;26.88;;;-1.80;83.90;;;;;;5032154;28;20506;-86
2022/12/18 00:10:39;;;;;;;47.55;26.85;;;-1.90;83.70;;;;;;5028717;28;20030;-87
2022/12/18 00:13:05;;;;;;;46.88;26.00;;;-2.00;83.70;;;;;;5031747;28;20024;-86
2022/12/18 00:15:37;;;;;;;53.17;28.38;;;-2.00;83.90;;;;;;5030149;28;20034;-87
2022/12/18 00:18:03;;;;;;;48.55;27.25;;;-2.10;83.70;;;;;;5035437;28;20028;-85
2022/12/18 00:20:29;;;;;;;53.05;27.98;;;-2.10;83.90;;;;;;5028251;28;20033;-87
2022/12/18 00:22:55;;;;;;;40.20;22.33;;;-2.20;83.80;;;;;;5031481;28;20029;-88
2022/12/18 00:25:20;;;;;;;41.50;22.95;;;-2.20;84.00;;;;;;5034386;28;20051;-88
2022/12/18 00:27:46;;;;;;;45.33;24.55;;;-2.20;83.80;;;;;;5031468;28;20021;-88
2022/12/18 00:30:12;;;;;;;40.88;22.63;;;-2.20;83.80;;;;;;5032528;28;20403;-88
2022/12/18 00:32:37;;;;;;;45.17;25.35;;;-2.20;83.80;;;;;;5029599;28;20027;-87
2022/12/18 00:35:05;;;;;;;44.38;24.20;;;-2.20;83.80;;;;;;5032367;28;20052;-86
2022/12/18 00:37:30;;;;;;;42.97;23.85;;;-2.20;83.70;;;;;;5029346;28;20017;-88
2022/12/18 00:39:56;;;;;;;49.65;28.23;;;-2.30;83.40;;;;;;5046560;28;20438;-87
2022/12/18 00:45:06;;;;;;;46.90;26.63;;;-2.30;83.50;;;;;;5045918;28;20052;-86
2022/12/18 00:47:31;;;;;;;44.10;25.17;;;-2.40;83.40;;;;;;5032648;28;20025;-84
2022/12/18 00:49:57;;;;;;;41.47;22.92;;;-2.50;83.40;;;;;;5037024;28;20067;-85
2022/12/18 00:52:23;;;;;;;42.72;23.33;;;-2.40;83.70;;;;;;5031854;28;20040;-85
2022/12/18 00:54:48;;;;;;;37.45;21.77;;;-2.40;83.50;;;;;;5050896;28;20048;-84
2022/12/18 00:57:14;;;;;;;40.22;21.90;;;-2.40;83.60;;;;;;5031353;28;20164;-88
2022/12/18 00:59:39;;;;;;;37.92;20.55;;;-2.40;83.50;;;;;;5028220;28;20057;-88
2022/12/18 01:02:05;;;;;;;43.33;24.15;;;-2.30;83.50;;;;;;5029406;28;20029;-88
2022/12/18 01:04:34;;;;;;;40.40;22.92;;;-2.40;83.20;;;;;;5028350;28;20035;-88
2022/12/18 01:07:00;;;;;;;38.80;21.17;;;-2.40;83.20;;;;;;5032402;28;20407;-87
2022/12/18 01:09:26;;;;;;;37.97;20.88;;;-2.30;83.30;;;;;;5028972;28;20027;-87
2022/12/18 01:11:51;;;;;;;39.78;22.85;;;-2.30;83.80;;;;;;5032204;28;20017;-87
2022/12/18 01:14:17;;;;;;;39.22;21.92;;;-2.30;83.00;;;;;;5032069;28;20108;-86
2022/12/18 01:16:43;;;;;;;40.90;22.90;;;-2.30;82.90;;;;;;5041754;28;20045;-86
2022/12/18 01:19:09;;;;;;;34.78;20.05;;;-2.30;82.80;;;;;;5029444;28;20470;-86
2022/12/18 01:21:34;;;;;;;33.08;18.92;;;-2.30;82.80;;;;;;5032993;28;20052;-86
2022/12/18 01:24:00;;;;;;;34.85;18.88;;;-2.30;82.80;;;;;;5041124;28;20035;-87
2022/12/18 01:26:29;;;;;;;33.53;19.33;;;-2.30;82.70;;;;;;5039945;28;20028;-85
2022/12/18 01:28:56;;;;;;;36.80;21.60;;;-2.30;82.60;;;;;;5054595;28;20088;-85
2022/12/18 01:31:26;;;;;;;36.30;21.85;;;-2.40;82.50;;;;;;5055138;28;20056;-84
2022/12/18 01:33:53;;;;;;;39.30;22.48;;;-2.40;82.50;;;;;;5039840;28;20051;-88
2022/12/18 01:36:27;;;;;;;36.65;20.05;;;-2.50;82.60;;;;;;5047783;28;20041;-85
2022/12/18 01:38:53;;;;;;;40.00;23.13;;;-2.50;82.60;;;;;;5049657;28;20108;-85
2022/12/18 01:41:23;;;;;;;36.00;21.02;;;-2.60;82.60;;;;;;5056862;28;20033;-85
2022/12/18 01:43:55;;;;;;;34.97;19.38;;;-2.60;82.90;;;;;;5050605;28;20033;-86
2022/12/18 01:46:26;;;;;;;36.80;19.75;;;-2.50;82.90;;;;;;5040481;28;20112;-87
2022/12/18 01:48:57;;;;;;;36.00;19.77;;;-2.50;82.80;;;;;;5047384;28;20026;-88
2022/12/18 01:51:23;;;;;;;34.03;19.98;;;-2.40;82.70;;;;;;5038166;28;20107;-86
2022/12/18 01:53:49;;;;;;;35.22;20.65;;;-2.40;82.50;;;;;;5034788;28;20446;-83
2022/12/18 01:56:18;;;;;;;36.67;21.38;;;-2.50;82.50;;;;;;5047400;28;20407;-86
2022/12/18 01:59:03;;;;;;;33.88;20.38;;;-2.50;82.50;;;;;;5045403;28;20018;-85
2022/12/18 02:01:30;;;;;;;41.35;23.15;;;-2.60;82.50;;;;;;5064659;28;20021;-86
2022/12/18 02:04:26;;;;;;;34.63;20.25;;;-2.60;82.50;;;;;;5037405;28;20036;-87
2022/12/18 02:07:10;;;;;;;36.55;21.42;;;-2.60;82.60;;;;;;5048173;28;20032;-87
2022/12/18 02:09:56;;;;;;;34.55;20.13;;;-2.70;82.50;;;;;;5034927;28;20025;-86
2022/12/18 02:12:25;;;;;;;32.58;19.42;;;-2.60;83.30;;;;;;5054098;28;20028;-85
2022/12/18 02:15:14;;;;;;;37.30;20.95;;;-2.60;82.50;;;;;;5037655;28;20438;-85
2022/12/18 02:18:03;;;;;;;35.08;19.95;;;-2.60;82.40;;;;;;5074690;28;20020;-85
2022/12/18 02:20:55;;;;;;;30.70;17.55;;;-2.60;82.40;;;;;;5050318;28;20037;-84
2022/12/18 02:23:46;;;;;;;31.52;17.83;;;-2.60;82.90;;;;;;5049942;28;20723;-85
2022/12/18 02:26:28;;;;;;;30.73;18.52;;;-2.60;82.30;;;;;;5068124;28;20069;-85
2022/12/18 02:28:54;;;;;;;29.77;17.27;;;-2.70;82.30;;;;;;5038536;28;20094;-88
2022/12/18 02:31:28;;;;;;;26.73;16.33;;;-2.60;82.30;;;;;;5032659;28;20038;-88
2022/12/18 02:33:59;;;;;;;27.95;16.73;;;-2.60;82.30;;;;;;5032932;28;20031;-88
2022/12/18 02:36:26;;;;;;;29.98;17.98;;;-2.60;82.30;;;;;;5035089;28;20352;-88
2022/12/18 02:38:53;;;;;;;28.77;17.40;;;-2.60;82.30;;;;;;5043687;28;20108;-89
2022/12/18 02:41:21;;;;;;;30.05;18.23;;;-2.60;82.20;;;;;;5050941;28;20020;-89
2022/12/18 02:43:48;;;;;;;31.92;18.58;;;-2.60;82.10;;;;;;5034470;28;20013;-89
2022/12/18 02:46:45;;;;;;;27.92;16.60;;;-2.60;82.10;;;;;;5032568;28;20052;-89
2022/12/18 02:49:31;;;;;;;27.58;16.55;;;-2.50;82.20;;;;;;5012889;28;20038;-89
2022/12/18 02:52:11;;;;;;;29.17;16.80;;;-2.60;81.90;;;;;;5029604;28;20114;-86
2022/12/18 02:55:02;;;;;;;30.38;18.15;;;-2.60;81.90;;;;;;5028682;28;20039;-87
2022/12/18 02:57:42;;;;;;;26.95;17.23;;;-2.60;82.00;;;;;;5033825;28;20031;-86
2022/12/18 03:00:15;;;;;;;30.92;18.15;;;-2.70;81.90;;;;;;5047663;28;20064;-86
2022/12/18 03:03:05;;;;;;;27.88;17.35;;;-2.60;82.00;;;;;;5040402;28;20110;-87
2022/12/18 03:05:55;;;;;;;28.25;17.50;;;-2.70;82.00;;;;;;5038953;28;20025;-86
2022/12/18 03:08:31;;;;;;;30.08;17.98;;;-2.70;81.90;;;;;;5052378;28;20507;-87
2022/12/18 03:11:04;;;;;;;31.83;17.95;;;-2.70;81.80;;;;;;5034674;28;20029;-85
2022/12/18 03:13:41;;;;;;;26.35;16.98;;;-2.70;81.80;;;;;;5027456;28;20021;-87
2022/12/18 03:16:12;;;;;;;26.02;16.55;;;-2.70;81.80;;;;;;5041273;28;20059;-87
2022/12/18 03:18:48;;;;;;;23.42;14.35;;;-2.70;81.80;;;;;;5043873;28;20017;-87
2022/12/18 03:21:17;;;;;;;26.23;15.60;;;-2.70;81.90;;;;;;5038109;28;20032;-87
2022/12/18 03:23:49;;;;;;;26.33;15.95;;;-2.70;81.80;;;;;;5036736;28;20502;-85
2022/12/18 03:26:20;;;;;;;24.17;14.23;;;-2.70;81.70;;;;;;5037558;28;20495;-85
2022/12/18 03:28:52;;;;;;;21.43;14.13;;;-2.70;81.60;;;;;;5034993;28;20029;-85
2022/12/18 03:31:21;;;;;;;22.73;14.18;;;-2.60;81.70;;;;;;5056541;28;20303;-86
2022/12/18 03:33:57;;;;;;;25.85;15.65;;;-2.60;81.60;;;;;;5053057;28;20025;-86
2022/12/18 03:36:23;;;;;;;25.67;15.63;;;-2.70;81.60;;;;;;5048534;28;20032;-86
2022/12/18 03:38:49;;;;;;;23.55;14.65;;;-2.70;81.50;;;;;;5039233;28;20364;-87
2022/12/18 03:41:41;;;;;;;23.75;14.95;;;-2.70;81.50;;;;;;5049641;28;20055;-86
2022/12/18 03:44:14;;;;;;;27.67;17.17;;;-2.70;81.50;;;;;;5031829;28;20048;-87
2022/12/18 03:47:07;;;;;;;24.92;16.05;;;-2.70;81.30;;;;;;5038474;28;20044;-85
2022/12/18 03:49:33;;;;;;;29.02;16.80;;;-2.90;81.20;;;;;;5045470;28;20131;-87
2022/12/18 03:52:12;;;;;;;26.77;16.10;;;-2.90;81.30;;;;;;5032375;28;20125;-87
2022/12/18 03:54:40;;;;;;;22.23;14.23;;;-2.90;81.50;;;;;;5036042;28;20024;-87
2022/12/18 03:57:17;;;;;;;24.08;15.40;;;-2.90;81.60;;;;;;5042517;28;20472;-88
2022/12/18 03:59:45;;;;;;;25.35;16.10;;;-2.90;81.50;;;;;;5033860;28;20041;-87
2022/12/18 04:02:11;;;;;;;26.05;17.45;;;-2.90;81.50;;;;;;5037778;28;20049;-87
2022/12/18 04:04:39;;;;;;;23.98;15.35;;;-3.00;81.50;;;;;;5039034;28;20028;-87
2022/12/18 04:07:06;;;;;;;23.50;14.25;;;-3.00;81.70;;;;;;5051414;28;20021;-87
2022/12/18 04:09:33;;;;;;;26.23;17.02;;;-3.00;81.70;;;;;;5033081;28;20040;-88
2022/12/18 04:11:59;;;;;;;20.73;13.63;;;-3.00;81.60;;;;;;5056171;28;20077;-87
2022/12/18 04:14:25;;;;;;;24.45;14.98;;;-3.00;81.80;;;;;;5034870;28;20037;-89
2022/12/18 04:16:50;;;;;;;23.10;13.02;;;-3.00;81.80;;;;;;5032315;28;20023;-87
2022/12/18 04:19:16;;;;;;;24.48;14.48;;;-3.00;81.80;;;;;;5024860;28;20021;-88
2022/12/18 04:21:42;;;;;;;21.65;14.15;;;-3.00;81.70;;;;;;5037802;28;20020;-86
2022/12/18 04:24:08;;;;;;;25.00;15.32;;;-3.00;81.80;;;;;;5051403;28;20036;-86
2022/12/18 04:26:34;;;;;;;25.90;14.73;;;-3.00;81.70;;;;;;5043700;28;20009;-88
2022/12/18 04:29:00;;;;;;;24.05;15.07;;;-3.00;81.70;;;;;;5048221;28;20035;-87
2022/12/18 04:31:26;;;;;;;28.08;15.95;;;-3.10;81.70;;;;;;5033378;28;20021;-87
2022/12/18 04:33:52;;;;;;;22.60;14.60;;;-3.00;81.80;;;;;;5034575;28;20013;-86
2022/12/18 04:36:17;;;;;;;20.92;12.82;;;-3.10;81.80;;;;;;5033823;28;20039;-86
2022/12/18 04:38:43;;;;;;;22.83;14.52;;;-3.00;82.50;;;;;;5050212;28;20094;-86
2022/12/18 04:41:08;;;;;;;22.58;14.43;;;-3.10;81.70;;;;;;5033150;28;20367;-86
2022/12/18 04:43:34;;;;;;;20.40;13.77;;;-3.00;81.70;;;;;;5049870;28;20519;-87
2022/12/18 04:46:05;;;;;;;22.45;14.55;;;-3.00;81.80;;;;;;5034851;28;20017;-87
2022/12/18 04:48:30;;;;;;;23.17;14.07;;;-3.10;81.80;;;;;;5032281;28;20098;-87
2022/12/18 04:50:56;;;;;;;24.73;14.68;;;-3.10;81.90;;;;;;5030236;28;20463;-87
2022/12/18 04:53:21;;;;;;;25.85;15.27;;;-3.10;81.90;;;;;;5050635;28;20025;-87
2022/12/18 04:55:47;;;;;;;23.17;14.27;;;-3.10;82.00;;;;;;5035506;28;20399;-88
2022/12/18 04:58:13;;;;;;;20.95;13.38;;;-3.10;82.10;;;;;;5032270;28;20056;-88
2022/12/18 05:00:39;;;;;;;21.52;14.25;;;-3.10;82.20;;;;;;5032580;28;20476;-87
2022/12/18 05:03:04;;;;;;;20.67;13.60;;;-3.10;82.20;;;;;;5035644;28;20013;-86
2022/12/18 05:05:30;;;;;;;23.20;14.85;;;-3.10;82.20;;;;;;5050643;28;20028;-86
2022/12/18 05:07:56;;;;;;;21.02;12.88;;;-3.10;82.20;;;;;;5033950;28;20467;-88
2022/12/18 05:10:21;;;;;;;23.10;13.60;;;-3.10;82.90;;;;;;5039288;28;20375;-88
2022/12/18 05:12:59;;;;;;;23.40;13.73;;;-3.10;82.20;;;;;;5049253;28;20025;-89
2022/12/18 05:15:30;;;;;;;21.60;12.73;;;-3.10;82.20;;;;;;5036069;28;20399;-88
2022/12/18 05:17:56;;;;;;;23.33;14.18;;;-3.10;82.20;;;;;;5051039;28;20024;-86
2022/12/18 05:20:22;;;;;;;20.70;12.80;;;-3.10;82.20;;;;;;5061474;28;20059;-86
2022/12/18 05:22:48;;;;;;;22.63;13.98;;;-3.00;82.20;;;;;;5057080;28;20024;-89
2022/12/18 05:25:14;;;;;;;24.45;14.90;;;-3.00;82.00;;;;;;5038702;28;20016;-86
2022/12/18 05:27:40;;;;;;;20.92;13.23;;;-3.10;82.00;;;;;;5067272;28;20017;-88
2022/12/18 05:30:06;;;;;;;21.38;13.43;;;-3.10;82.00;;;;;;5063144;28;20012;-88
2022/12/18 05:32:32;;;;;;;19.63;13.02;;;-3.10;82.10;;;;;;5065059;28;20074;-89
2022/12/18 05:34:57;;;;;;;21.17;13.80;;;-3.10;82.10;;;;;;5033983;28;20101;-87
2022/12/18 05:37:23;;;;;;;20.73;13.40;;;-3.10;82.10;;;;;;5040403;28;20059;-85
2022/12/18 05:39:49;;;;;;;24.38;14.35;;;-3.10;82.10;;;;;;5046395;28;20025;-86
2022/12/18 05:42:14;;;;;;;19.25;12.73;;;-3.10;82.10;;;;;;5054002;28;20029;-86
2022/12/18 05:44:40;;;;;;;23.90;12.88;;;-3.10;82.20;;;;;;5044838;28;20040;-86
2022/12/18 05:47:06;;;;;;;21.13;12.95;;;-3.10;82.20;;;;;;5042842;28;20021;-85
2022/12/18 05:49:31;;;;;;;22.67;14.55;;;-3.10;82.20;;;;;;5046620;28;20021;-85
2022/12/18 05:51:57;;;;;;;21.60;13.93;;;-3.10;82.10;;;;;;5035827;28;20028;-89
2022/12/18 05:54:22;;;;;;;20.00;12.82;;;-3.10;82.00;;;;;;5040139;28;20321;-86
2022/12/18 05:56:48;;;;;;;24.25;15.30;;;-3.10;82.00;;;;;;5043036;28;20023;-85
2022/12/18 05:59:14;;;;;;;23.15;14.63;;;-3.10;82.00;;;;;;5039171;28;20029;-85
2022/12/18 06:01:39;;;;;;;24.73;15.15;;;-3.10;82.00;;;;;;5055242;28;20134;-83
2022/12/18 06:04:05;;;;;;;22.00;14.68;;;-3.20;82.10;;;;;;5058724;28;20071;-88
2022/12/18 06:06:30;;;;;;;21.33;13.65;;;-3.20;82.20;;;;;;5037276;28;20021;-89
2022/12/18 06:08:57;;;;;;;24.35;14.23;;;-3.10;82.40;;;;;;5033288;28;20075;-89
2022/12/18 06:11:25;;;;;;;22.45;14.23;;;-3.10;82.40;;;;;;5038523;28;20238;-89
2022/12/18 06:13:53;;;;;;;20.13;13.45;;;-3.10;82.40;;;;;;5037795;28;20050;-88
2022/12/18 06:16:19;;;;;;;22.33;13.82;;;-3.00;82.40;;;;;;5035842;28;20483;-84
2022/12/18 06:18:44;;;;;;;19.67;13.73;;;-3.00;82.30;;;;;;5041301;28;20025;-86
2022/12/18 06:21:10;;;;;;;21.75;14.23;;;-3.00;82.20;;;;;;5032527;28;20020;-86
2022/12/18 06:23:35;;;;;;;19.63;13.05;;;-3.00;82.20;;;;;;5035042;28;20014;-87
2022/12/18 06:26:09;;;;;;;20.75;13.75;;;-3.00;82.20;;;;;;5035351;28;20021;-87
2022/12/18 06:28:35;;;;;;;21.80;14.30;;;-3.00;82.20;;;;;;5036552;28;20533;-86
2022/12/18 06:31:05;;;;;;;24.38;15.85;;;-2.90;82.10;;;;;;5041480;28;20021;-83
2022/12/18 06:33:31;;;;;;;21.02;14.40;;;-2.90;82.10;;;;;;5048833;28;20029;-83
2022/12/18 06:36:09;;;;;;;23.60;14.82;;;-2.90;82.00;;;;;;5041424;28;20025;-84
2022/12/18 06:38:36;;;;;;;22.33;14.65;;;-3.00;82.00;;;;;;5053330;28;20021;-83
2022/12/18 06:41:10;;;;;;;22.45;14.30;;;-3.00;82.00;;;;;;5043721;28;20368;-89
2022/12/18 06:43:36;;;;;;;20.95;13.95;;;-3.00;82.10;;;;;;5035343;28;20075;-87
2022/12/18 06:46:02;;;;;;;23.17;15.50;;;-3.00;82.10;;;;;;5040379;28;20031;-88
2022/12/18 06:48:29;;;;;;;22.17;14.15;;;-3.00;82.10;;;;;;5026281;28;20040;-87
2022/12/18 06:50:55;;;;;;;21.13;14.10;;;-3.00;82.20;;;;;;5050708;28;20124;-85
2022/12/18 06:53:21;;;;;;;19.63;13.75;;;-3.00;82.10;;;;;;5036728;28;20098;-85
2022/12/18 06:55:47;;;;;;;21.38;14.07;;;-2.90;82.10;;;;;;5050981;28;20231;-85
2022/12/18 06:58:12;;;;;;;20.70;13.95;;;-2.90;82.00;;;;;;5041283;28;20021;-86
2022/12/18 07:00:38;;;;;;;24.55;14.65;;;-2.90;82.00;;;;;;5050028;28;20429;-86
2022/12/18 07:03:04;;;;;;;19.38;12.95;;;-2.90;82.00;;;;;;5036891;28;20024;-86
2022/12/18 07:05:29;;;;;;;21.65;14.60;;;-2.90;82.00;;;;;;5046770;28;20051;-86
2022/12/18 07:07:55;;;;;;;22.85;14.63;;;-2.90;81.90;;;;;;5033794;28;20028;-87
2022/12/18 07:10:20;;;;;;;20.63;13.40;;;-2.80;82.00;;;;;;5035712;28;20037;-86
2022/12/18 07:12:46;;;;;;;22.63;13.98;;;-2.80;82.00;;;;;;5034782;28;20017;-86
2022/12/18 07:15:12;;;;;;;22.77;14.80;;;-2.80;81.90;;;;;;5042511;28;20040;-87
2022/12/18 07:17:37;;;;;;;21.33;14.38;;;-2.80;81.90;;;;;;5034781;28;20027;-86
2022/12/18 07:20:03;;;;;;;24.08;13.90;;;-2.80;82.00;;;;;;5039032;28;20021;-87
2022/12/18 07:22:29;;;;;;;21.55;14.48;;;-2.80;82.00;;;;;;5039081;28;20394;-87
2022/12/18 07:24:55;;;;;;;19.98;13.18;;;-2.80;81.90;;;;;;5033947;28;20111;-87
2022/12/18 07:27:21;;;;;;;20.63;13.60;;;-2.80;82.00;;;;;;5040956;28;20452;-84
2022/12/18 07:29:46;;;;;;;21.13;14.18;;;-2.80;81.80;;;;;;5033236;28;20029;-87
2022/12/18 07:32:12;;;;;;;20.45;13.80;;;-2.80;81.80;;;;;;5035711;28;20032;-87
2022/12/18 07:34:37;;;;;;;22.38;13.90;;;-2.80;81.90;;;;;;5033646;28;20086;-87
2022/12/18 07:37:03;;;;;;;19.40;13.02;;;-2.70;81.90;;;;;;5034188;28;20518;-86
2022/12/18 07:39:29;;;;;;;19.20;12.88;;;-2.70;81.90;;;;;;5030463;28;20384;-87
2022/12/18 07:44:39;;;;;;;22.05;13.07;;;-2.70;81.80;;;;;;5047428;28;20044;-87
2022/12/18 07:47:05;;;;;;;19.15;12.98;;;-2.70;81.80;;;;;;5038791;28;20399;-87
2022/12/18 07:49:30;;;;;;;21.02;12.77;;;-2.60;81.80;;;;;;5036306;28;20074;-87
2022/12/18 07:51:57;;;;;;;19.55;12.40;;;-2.60;81.70;;;;;;5033389;28;20056;-86
2022/12/18 07:54:23;;;;;;;19.65;13.77;;;-2.50;81.70;;;;;;5033549;28;20024;-87
2022/12/18 07:56:49;;;;;;;18.45;12.15;;;-2.60;81.60;;;;;;5033442;28;20045;-86
2022/12/18 07:59:14;;;;;;;20.42;13.05;;;-2.50;81.10;;;;;;5033471;28;20112;-87
2022/12/18 08:01:40;;;;;;;19.60;12.93;;;-2.50;81.50;;;;;;5035215;28;20066;-87
2022/12/18 08:04:05;;;;;;;22.30;14.35;;;-2.50;81.40;;;;;;5033396;28;20033;-87
2022/12/18 08:06:31;;;;;;;19.10;12.07;;;-2.40;81.40;;;;;;5031485;28;20068;-88
2022/12/18 08:09:03;;;;;;;20.00;13.25;;;-2.30;81.40;;;;;;5038256;28;20542;-87
2022/12/18 08:11:29;;;;;;;20.75;12.75;;;-2.30;81.30;;;;;;5035256;28;20021;-87
2022/12/18 08:13:55;;;;;;;20.13;12.48;;;-2.30;81.20;;;;;;5034695;28;20312;-87
2022/12/18 08:16:23;;;;;;;17.30;11.45;;;-2.30;81.10;;;;;;5032164;28;20036;-86
2022/12/18 08:18:48;;;;;;;20.45;13.68;;;-2.30;81.10;;;;;;5029023;28;20017;-87
2022/12/18 08:21:22;;;;;;;17.75;11.85;;;-2.20;81.10;;;;;;5035841;28;20083;-86
2022/12/18 08:23:48;;;;;;;18.48;12.18;;;-2.30;81.00;;;;;;5034779;28;20434;-87
2022/12/18 08:26:14;;;;;;;20.13;12.30;;;-2.20;81.00;;;;;;5033819;28;20064;-87
2022/12/18 08:28:40;;;;;;;19.10;12.40;;;-2.20;80.90;;;;;;5032018;28;20380;-86
2022/12/18 08:31:07;;;;;;;18.05;12.05;;;-2.20;80.90;;;;;;5038131;28;20155;-87
2022/12/18 08:33:33;;;;;;;17.67;11.70;;;-2.10;80.90;;;;;;5028594;28;20124;-87
2022/12/18 08:36:00;;;;;;;18.73;11.63;;;-2.10;80.90;;;;;;5043093;28;20434;-88
2022/12/18 08:38:26;;;;;;;19.13;12.13;;;-2.10;80.80;;;;;;5023045;28;20021;-88
2022/12/18 08:41:07;;;;;;;17.40;10.90;;;-2.10;80.80;;;;;;5031319;28;20428;-88
2022/12/18 08:46:18;;;;;;;19.75;12.70;;;-2.00;80.60;;;;;;5041832;28;20102;-88
2022/12/18 08:48:44;;;;;;;19.65;12.15;;;-2.00;80.60;;;;;;5049043;28;20029;-88
2022/12/18 08:51:10;;;;;;;17.38;11.15;;;-2.00;80.60;;;;;;5030295;28;20045;-88
2022/12/18 08:53:36;;;;;;;16.40;11.65;;;-2.00;80.60;;;;;;5036259;28;20446;-88
2022/12/18 08:56:02;;;;;;;19.17;12.15;;;-1.90;80.60;;;;;;5033475;28;20108;-87
2022/12/18 08:58:28;;;;;;;17.50;11.68;;;-1.90;80.50;;;;;;5035240;28;20104;-87
2022/12/18 09:00:54;;;;;;;19.27;12.38;;;-1.90;80.40;;;;;;5031584;28;20017;-88
2022/12/18 09:03:22;;;;;;;19.85;12.13;;;-1.90;80.40;;;;;;5051539;28;20140;-87
2022/12/18 09:05:48;;;;;;;16.80;10.85;;;-1.90;80.30;;;;;;5039309;28;20439;-86
2022/12/18 09:08:14;;;;;;;17.40;11.18;;;-1.80;80.50;;;;;;5056293;28;20033;-84
2022/12/18 09:10:47;;;;;;;17.00;11.50;;;-1.80;80.30;;;;;;5056712;28;20020;-86
2022/12/18 09:13:15;;;;;;;17.15;10.80;;;-1.70;80.30;;;;;;5048916;28;20025;-88
2022/12/18 09:15:45;;;;;;;19.05;11.70;;;-1.70;80.30;;;;;;5066978;28;20017;-84
2022/12/18 09:18:12;;;;;;;16.23;10.43;;;-1.70;80.10;;;;;;5057360;28;20037;-86
2022/12/18 09:20:37;;;;;;;16.85;10.77;;;-1.60;80.10;;;;;;5063553;28;20029;-88
2022/12/18 09:23:04;;;;;;;18.15;11.93;;;-1.60;80.10;;;;;;5044927;28;20100;-88
2022/12/18 09:25:32;;;;;;;16.23;10.65;;;-1.60;80.10;;;;;;5035755;28;20522;-87
2022/12/18 09:27:59;;;;;;;17.77;10.95;;;-1.50;80.10;;;;;;5031547;28;20112;-87
2022/12/18 09:30:24;;;;;;;17.02;11.27;;;-1.40;80.60;;;;;;5027679;28;20131;-87
2022/12/18 09:32:50;;;;;;;16.45;10.95;;;-1.40;80.00;;;;;;5033772;28;20045;-87
2022/12/18 09:35:15;;;;;;;16.70;10.25;;;-1.30;80.00;;;;;;5031569;28;20025;-88
2022/12/18 09:37:42;;;;;;;16.02;11.00;;;-1.20;80.00;;;;;;5032260;28;20021;-88
2022/12/18 09:40:14;;;;;;;16.83;10.85;;;-1.20;79.80;;;;;;5033090;28;20083;-88
2022/12/18 09:42:43;;;;;;;15.50;10.32;;;-1.10;79.50;;;;;;5036407;28;20052;-86
2022/12/18 09:45:14;;;;;;;16.02;10.38;;;-1.10;79.30;;;;;;5033050;28;20029;-87
2022/12/18 09:47:42;;;;;;;14.60;10.05;;;-1.00;79.20;;;;;;5025377;28;20571;-86
2022/12/18 09:50:31;;;;;;;15.55;10.90;;;-1.00;79.10;;;;;;5032173;28;20120;-87
2022/12/18 09:53:02;;;;;;;14.60;9.68;;;-0.90;78.90;;;;;;5021702;28;20037;-87
2022/12/18 09:59:48;;;;;;;14.43;9.90;;;-0.80;78.60;;;;;;5046322;28;20114;-91
2022/12/18 10:02:35;;;;;;;15.15;10.00;;;-0.70;78.40;;;;;;4984489;28;20430;-92
2022/12/18 10:09:27;;;;;;;17.42;10.90;;;-0.70;78.20;;;;;;5052492;28;20136;-91
2022/12/18 10:12:51;;;;;;;16.00;9.90;;;-0.70;78.00;;;;;;5066916;28;20120;-91
2022/12/18 10:15:31;;;;;;;18.15;11.20;;;-0.70;77.70;;;;;;5035415;28;20483;-90
2022/12/18 10:18:33;;;;;;;17.80;11.38;;;-0.60;77.50;;;;;;5045862;28;20750;-91
2022/12/18 10:21:09;;;;;;;15.85;9.85;;;-0.60;77.50;;;;;;5037937;28;20021;-91
2022/12/18 10:24:01;;;;;;;15.60;10.25;;;-0.50;77.40;;;;;;5032255;28;20017;-89
2022/12/18 10:26:27;;;;;;;15.70;10.07;;;-0.50;77.00;;;;;;5037280;28;20064;-88
2022/12/18 10:28:53;;;;;;;17.42;10.35;;;-0.50;76.60;;;;;;5045282;28;20025;-89
2022/12/18 10:31:21;;;;;;;17.20;10.57;;;-0.40;76.60;;;;;;5033581;28;20025;-91
2022/12/18 10:33:47;;;;;;;15.75;10.00;;;-0.40;76.60;;;;;;5041761;28;20041;-91
2022/12/18 10:36:14;;;;;;;15.80;10.60;;;-0.30;76.50;;;;;;5038192;28;20459;-91
2022/12/18 10:39:24;;;;;;;16.02;10.13;;;-0.30;76.50;;;;;;5035772;28;20092;-93
2022/12/18 10:41:50;;;;;;;18.00;10.75;;;-0.20;76.30;;;;;;5040122;28;20025;-90
2022/12/18 10:44:22;;;;;;;15.02;10.00;;;-0.10;76.10;;;;;;5022067;28;20039;-90
2022/12/18 10:46:55;;;;;;;14.85;9.88;;;-0.10;76.00;;;;;;5038767;28;20040;-90
2022/12/18 10:49:28;;;;;;;16.05;11.40;;;0.00;76.00;;;;;;5035771;28;20029;-87
2022/12/18 10:52:06;;;;;;;15.80;10.45;;;0.00;75.80;;;;;;5039966;28;20013;-83
2022/12/18 10:54:33;;;;;;;19.27;11.27;;;0.00;75.60;;;;;;5074557;28;20018;-86
2022/12/18 10:57:24;;;;;;;18.13;10.98;;;0.00;75.40;;;;;;5060051;28;20092;-82
2022/12/18 10:59:54;;;;;;;15.73;10.13;;;0.00;75.40;;;;;;5056011;28;20034;-83
2022/12/18 11:02:32;;;;;;;14.95;10.48;;;0.10;75.20;;;;;;5053138;28;20018;-84
2022/12/18 11:04:58;;;;;;;17.10;10.48;;;0.00;75.10;;;;;;5049885;28;20088;-84
2022/12/18 11:07:24;;;;;;;17.63;10.65;;;0.10;75.10;;;;;;5061841;28;20033;-85
2022/12/18 11:10:02;;;;;;;16.88;11.15;;;0.10;74.80;;;;;;5055767;28;20021;-87
2022/12/18 11:12:28;;;;;;;16.40;10.30;;;0.20;75.00;;;;;;5060250;28;20024;-86
2022/12/18 11:14:56;;;;;;;15.77;10.35;;;0.20;74.60;;;;;;5063232;28;20045;-87
2022/12/18 11:17:36;;;;;;;17.02;10.90;;;0.20;74.70;;;;;;5061053;28;20809;-87
2022/12/18 11:20:06;;;;;;;15.98;10.88;;;0.30;74.70;;;;;;5071276;28;20029;-89
2022/12/18 11:22:34;;;;;;;15.63;10.20;;;0.40;74.60;;;;;;5061245;28;20005;-86
2022/12/18 11:25:17;;;;;;;17.48;11.20;;;0.40;74.40;;;;;;5053170;28;20023;-87
2022/12/18 11:27:55;;;;;;;15.27;10.55;;;0.40;74.20;;;;;;5060465;28;20060;-86
2022/12/18 11:30:27;;;;;;;18.65;11.07;;;0.50;74.10;;;;;;5071930;28;20025;-87
2022/12/18 11:33:14;;;;;;;17.67;10.60;;;0.50;73.90;;;;;;5055512;28;20045;-87
2022/12/18 11:35:43;;;;;;;15.82;10.40;;;0.60;73.70;;;;;;5058302;28;20055;-87
2022/12/18 11:38:20;;;;;;;17.85;11.13;;;0.60;73.50;;;;;;5056912;28;20024;-87
2022/12/18 11:40:58;;;;;;;19.98;12.77;;;0.60;73.20;;;;;;5060516;28;20105;-87
2022/12/18 11:43:39;;;;;;;16.20;10.25;;;0.60;72.70;;;;;;5058544;28;20030;-87
2022/12/18 11:46:22;;;;;;;18.80;10.75;;;0.70;72.90;;;;;;5056543;28;20025;-87
2022/12/18 11:49:07;;;;;;;20.42;11.90;;;0.70;72.90;;;;;;5059790;28;20021;-87
2022/12/18 11:51:45;;;;;;;16.80;11.23;;;0.70;72.00;;;;;;5054272;28;20036;-86
2022/12/18 11:54:15;;;;;;;16.33;10.70;;;0.70;71.80;;;;;;5058891;28;20095;-86
2022/12/18 11:57:01;;;;;;;15.60;10.10;;;0.80;72.00;;;;;;5061247;28;20024;-86
2022/12/18 11:59:45;;;;;;;17.20;10.45;;;0.80;72.00;;;;;;5046929;28;20025;-87
2022/12/18 12:02:46;;;;;;;18.25;11.30;;;0.90;71.90;;;;;;5058577;28;20055;-87
2022/12/18 12:05:30;;;;;;;15.93;10.95;;;0.90;71.60;;;;;;5067571;28;20029;-87
2022/12/18 12:08:13;;;;;;;16.27;10.80;;;0.90;71.40;;;;;;5070932;28;20040;-87
2022/12/18 12:11:04;;;;;;;14.68;9.93;;;0.90;71.20;;;;;;5052702;28;20313;-87
2022/12/18 12:13:38;;;;;;;17.85;10.65;;;1.00;71.20;;;;;;5056861;28;20100;-89
2022/12/18 12:16:17;;;;;;;22.10;13.00;;;1.00;71.00;;;;;;5063404;28;20025;-90
2022/12/18 12:19:01;;;;;;;18.13;12.13;;;1.00;70.80;;;;;;5076129;28;20023;-89
2022/12/18 12:21:48;;;;;;;17.42;10.98;;;1.00;70.40;;;;;;5056360;28;20028;-90
2022/12/18 12:24:24;;;;;;;18.17;10.95;;;1.00;70.50;;;;;;5055323;28;20025;-91
2022/12/18 12:27:25;;;;;;;16.25;10.32;;;1.10;70.60;;;;;;5058197;28;20045;-91
2022/12/18 12:30:24;;;;;;;18.88;12.25;;;1.10;70.60;;;;;;5058246;28;20944;-91
2022/12/18 12:33:20;;;;;;;16.17;10.65;;;1.10;69.80;;;;;;5054848;28;20026;-90
2022/12/18 12:35:55;;;;;;;17.42;11.57;;;1.10;69.80;;;;;;5057437;28;20101;-91
2022/12/18 12:38:30;;;;;;;17.13;11.57;;;1.10;70.00;;;;;;5058640;28;20037;-89
2022/12/18 12:41:03;;;;;;;18.40;11.70;;;1.10;69.90;;;;;;5070895;28;20021;-90
2022/12/18 12:43:46;;;;;;;17.40;12.10;;;1.10;69.60;;;;;;5050988;28;20070;-89
2022/12/18 12:46:16;;;;;;;19.23;11.40;;;1.20;69.50;;;;;;5053907;28;20021;-89
2022/12/18 12:48:49;;;;;;;16.77;11.02;;;1.20;69.40;;;;;;5054674;28;20004;-89
2022/12/18 12:51:25;;;;;;;15.80;10.60;;;1.20;69.40;;;;;;5053728;28;20033;-91
2022/12/18 12:53:53;;;;;;;17.35;10.75;;;1.20;69.40;;;;;;5051070;28;20013;-91
2022/12/18 12:56:21;;;;;;;19.45;11.82;;;1.20;69.40;;;;;;5055296;28;20056;-90
2022/12/18 12:58:59;;;;;;;18.02;12.57;;;1.20;69.10;;;;;;5055707;28;20032;-88
2022/12/18 13:01:34;;;;;;;16.15;11.18;;;1.20;69.10;;;;;;5054087;28;20013;-90
2022/12/18 13:04:26;;;;;;;16.65;10.48;;;1.30;69.30;;;;;;5076607;28;20036;-89